createdAt,value
2023-01-15T00:00:02.553Z,20.13
2023-01-15T00:02:32.006Z,20.07
2023-01-15T00:05:02.875Z,19.33
2023-01-15T00:07:30.912Z,21.40
2023-01-15T00:09:58.895Z,21.53
2023-01-15T00:12:26.606Z,21.43
2023-01-15T00:14:54.327Z,20.47
2023-01-15T00:17:22.023Z,22.23
2023-01-15T00:19:51.073Z,23.30
2023-01-15T00:22:18.789Z,22.73
2023-01-15T00:25:11.252Z,22.73
2023-01-15T00:27:43.572Z,21.27
2023-01-15T00:30:13.398Z,21.53
2023-01-15T00:32:41.292Z,20.47
2023-01-15T00:35:13.718Z,19.63
2023-01-15T00:37:41.506Z,20.77
2023-01-15T00:40:11.335Z,22.23
2023-01-15T00:42:39.115Z,21.10
2023-01-15T00:45:10.284Z,21.70
2023-01-15T00:47:38.863Z,20.10
2023-01-15T00:50:09.281Z,21.23
2023-01-15T00:52:38.394Z,23.83
2023-01-15T00:55:07.426Z,20.67
2023-01-15T00:57:35.460Z,21.00
2023-01-15T01:00:04.114Z,20.47
2023-01-15T01:02:31.867Z,20.63
2023-01-15T01:04:59.617Z,19.67
2023-01-15T01:07:27.266Z,19.60
2023-01-15T01:09:56.311Z,22.43
2023-01-15T01:12:24.638Z,21.90
2023-01-15T01:14:53.382Z,20.43
2023-01-15T01:17:21.115Z,19.67
2023-01-15T01:19:48.800Z,21.97
2023-01-15T01:22:16.783Z,20.50
2023-01-15T01:24:44.603Z,20.17
2023-01-15T01:27:13.662Z,20.03
2023-01-15T01:29:41.647Z,19.80
2023-01-15T01:32:09.336Z,19.53
2023-01-15T01:34:37.038Z,22.67
2023-01-15T01:37:04.904Z,20.27
2023-01-15T01:39:32.890Z,21.67
2023-01-15T01:42:00.637Z,20.33
2023-01-15T01:45:01.580Z,20.10
2023-01-15T01:47:31.198Z,22.10
2023-01-15T01:50:01.804Z,20.73
2023-01-15T01:52:32.602Z,21.80
2023-01-15T01:55:00.439Z,19.97
2023-01-15T01:57:28.136Z,21.77
2023-01-15T01:59:56.857Z,18.67
2023-01-15T02:02:26.111Z,19.03
2023-01-15T02:04:53.944Z,19.40
2023-01-15T02:07:22.253Z,18.03
2023-01-15T02:09:49.951Z,18.87
2023-01-15T02:12:21.279Z,19.13
2023-01-15T02:14:58.688Z,16.37
2023-01-15T02:17:32.148Z,18.37
2023-01-15T02:20:18.178Z,16.50
2023-01-15T02:22:54.613Z,17.53
2023-01-15T02:28:17.008Z,16.43
2023-01-15T02:30:47.049Z,16.63
2023-01-15T02:33:17.745Z,16.70
2023-01-15T02:35:47.615Z,17.83
2023-01-15T02:38:18.278Z,18.70
2023-01-15T02:40:48.030Z,17.30
2023-01-15T02:43:17.876Z,17.53
2023-01-15T02:45:48.089Z,17.23
2023-01-15T02:48:17.903Z,18.03
2023-01-15T02:50:46.791Z,17.07
2023-01-15T02:53:18.991Z,16.83
2023-01-15T02:55:48.925Z,16.07
2023-01-15T02:58:21.913Z,17.13
2023-01-15T03:00:51.215Z,17.43
2023-01-15T03:03:23.360Z,16.37
2023-01-15T03:05:55.766Z,16.50
2023-01-15T03:08:23.691Z,15.67
2023-01-15T03:10:58.587Z,15.43
2023-01-15T03:13:31.069Z,15.33
2023-01-15T03:16:18.701Z,15.83
2023-01-15T03:18:49.529Z,14.80
2023-01-15T03:21:20.572Z,15.60
2023-01-15T03:23:52.241Z,15.70
2023-01-15T03:26:20.076Z,14.00
2023-01-15T03:28:49.859Z,13.20
2023-01-15T03:31:17.715Z,14.03
2023-01-15T03:33:45.901Z,13.47
2023-01-15T03:36:13.548Z,12.93
2023-01-15T03:38:41.637Z,13.03
2023-01-15T03:41:16.301Z,13.27
2023-01-15T03:43:56.599Z,14.37
2023-01-15T03:46:35.221Z,12.07
2023-01-15T03:49:07.228Z,12.90
2023-01-15T03:51:39.527Z,11.63
2023-01-15T03:54:10.428Z,10.93
2023-01-15T03:56:41.870Z,10.77
2023-01-15T03:59:18.584Z,10.60
2023-01-15T04:01:47.296Z,10.27
2023-01-15T04:04:16.293Z,10.47
2023-01-15T04:06:44.826Z,10.60
2023-01-15T04:09:14.325Z,9.73
2023-01-15T04:11:42.061Z,10.10
2023-01-15T04:14:14.344Z,11.00
2023-01-15T04:16:42.297Z,10.13
2023-01-15T04:19:10.023Z,9.97
2023-01-15T04:21:37.663Z,9.17
2023-01-15T04:24:05.799Z,10.30
2023-01-15T04:26:33.522Z,9.60
2023-01-15T04:29:01.157Z,9.20
2023-01-15T04:31:32.453Z,9.20
2023-01-15T04:34:00.163Z,10.47
2023-01-15T04:36:27.862Z,9.43
2023-01-15T04:38:57.585Z,8.87
2023-01-15T04:41:42.771Z,8.83
2023-01-15T04:44:10.433Z,8.87
2023-01-15T04:46:40.825Z,8.80
2023-01-15T04:49:11.396Z,9.37
2023-01-15T04:51:39.892Z,8.87
2023-01-15T04:54:08.507Z,9.23
2023-01-15T04:56:40.097Z,8.90
2023-01-15T04:59:08.048Z,10.80
2023-01-15T05:01:36.379Z,9.23
2023-01-15T05:04:05.670Z,9.10
2023-01-15T05:06:33.360Z,11.17
2023-01-15T05:09:01.412Z,8.97
2023-01-15T05:11:29.553Z,9.33
2023-01-15T05:13:57.384Z,9.50
2023-01-15T05:16:26.934Z,9.53
2023-01-15T05:18:55.726Z,9.63
2023-01-15T05:21:26.178Z,8.33
2023-01-15T05:23:57.195Z,8.67
2023-01-15T05:26:26.268Z,9.53
2023-01-15T05:28:54.843Z,9.67
2023-01-15T05:31:22.726Z,9.33
2023-01-15T05:33:50.795Z,9.50
2023-01-15T05:36:20.396Z,10.83
2023-01-15T05:38:49.431Z,10.83
2023-01-15T05:41:36.825Z,11.13
2023-01-15T05:44:06.936Z,10.40
2023-01-15T05:46:35.323Z,10.80
2023-01-15T05:49:03.956Z,10.27
2023-01-15T05:51:33.105Z,9.97
2023-01-15T05:54:02.468Z,9.13
2023-01-15T05:56:30.174Z,8.70
2023-01-15T05:58:57.925Z,9.37
2023-01-15T06:01:25.655Z,9.30
2023-01-15T06:03:53.735Z,9.00
2023-01-15T06:06:21.506Z,9.83
2023-01-15T06:08:50.442Z,10.20
2023-01-15T06:11:19.570Z,10.13
2023-01-15T06:13:47.410Z,9.33
2023-01-15T06:16:15.345Z,9.07
2023-01-15T06:18:43.173Z,9.23
2023-01-15T06:21:12.708Z,9.67
2023-01-15T06:23:41.261Z,9.10
2023-01-15T06:26:11.600Z,9.27
2023-01-15T06:28:40.644Z,9.53
2023-01-15T06:31:08.701Z,9.17
2023-01-15T06:33:36.704Z,9.57
2023-01-15T06:36:05.437Z,8.67
2023-01-15T06:38:33.221Z,11.47
2023-01-15T06:41:01.799Z,9.00
2023-01-15T06:43:47.113Z,8.43
2023-01-15T06:46:36.021Z,8.30
2023-01-15T06:49:03.821Z,9.10
2023-01-15T06:51:31.480Z,9.57
2023-01-15T06:53:59.202Z,9.87
2023-01-15T06:56:26.935Z,9.63
2023-01-15T06:58:56.143Z,8.97
2023-01-15T07:01:30.761Z,8.80
2023-01-15T07:03:58.540Z,9.80
2023-01-15T07:06:26.586Z,9.03
2023-01-15T07:08:54.551Z,8.73
2023-01-15T07:11:22.384Z,7.60
2023-01-15T07:13:50.209Z,9.20
2023-01-15T07:16:28.725Z,8.30
2023-01-15T07:18:57.968Z,8.20
2023-01-15T07:21:25.930Z,8.70
2023-01-15T07:23:54.341Z,7.90
2023-01-15T07:26:22.009Z,8.07
2023-01-15T07:28:49.691Z,7.83
2023-01-15T07:31:17.391Z,8.07
2023-01-15T07:33:45.284Z,7.73
2023-01-15T07:36:16.779Z,7.20
2023-01-15T07:38:44.746Z,7.10
2023-01-15T07:41:29.891Z,7.73
2023-01-15T07:44:15.318Z,6.77
2023-01-15T07:47:02.325Z,7.87
2023-01-15T07:49:48.692Z,8.23
2023-01-15T07:52:19.122Z,7.77
2023-01-15T07:54:47.991Z,8.33
2023-01-15T07:57:17.122Z,7.90
2023-01-15T07:59:44.807Z,7.37
2023-01-15T08:02:13.076Z,7.87
2023-01-15T08:04:41.182Z,8.30
2023-01-15T08:07:09.336Z,7.17
2023-01-15T08:09:38.414Z,8.20
2023-01-15T08:12:23.810Z,7.83
2023-01-15T08:15:09.383Z,7.30
2023-01-15T08:17:37.433Z,7.50
2023-01-15T08:20:07.560Z,7.93
2023-01-15T08:22:35.664Z,8.27
2023-01-15T08:25:05.151Z,7.77
2023-01-15T08:27:33.585Z,8.20
2023-01-15T08:30:01.306Z,8.20
2023-01-15T08:32:29.161Z,8.63
2023-01-15T08:34:57.162Z,8.40
2023-01-15T08:37:25.485Z,9.17
2023-01-15T08:39:53.493Z,8.40
2023-01-15T08:42:22.602Z,7.87
2023-01-15T08:44:50.602Z,8.70
2023-01-15T08:47:19.168Z,7.60
2023-01-15T08:49:48.298Z,7.80
2023-01-15T08:52:16.406Z,7.30
2023-01-15T08:54:44.410Z,6.73
2023-01-15T08:57:13.747Z,7.47
2023-01-15T08:59:43.897Z,7.87
2023-01-15T09:02:13.229Z,6.80
2023-01-15T09:04:41.030Z,7.17
2023-01-15T09:07:08.791Z,7.97
2023-01-15T09:09:36.514Z,7.80
2023-01-15T09:12:04.581Z,7.60
2023-01-15T09:14:59.089Z,7.30
2023-01-15T09:17:21.285Z,7.83
2023-01-15T09:19:49.249Z,8.00
2023-01-15T09:22:17.135Z,7.70
2023-01-15T09:24:44.838Z,6.73
2023-01-15T09:27:13.194Z,6.40
2023-01-15T09:29:40.914Z,6.60
2023-01-15T09:32:10.438Z,7.30
2023-01-15T09:34:39.462Z,6.90
2023-01-15T09:37:07.218Z,6.63
2023-01-15T09:39:34.964Z,6.90
2023-01-15T09:42:15.767Z,7.57
2023-01-15T09:44:56.521Z,7.57
2023-01-15T09:47:28.351Z,8.07
2023-01-15T09:50:10.992Z,8.10
2023-01-15T09:52:53.885Z,7.60
2023-01-15T09:55:23.209Z,7.20
2023-01-15T09:57:52.663Z,7.37
2023-01-15T10:00:23.506Z,7.97
2023-01-15T10:02:54.437Z,7.50
2023-01-15T10:05:27.730Z,7.87
2023-01-15T10:07:59.260Z,8.93
2023-01-15T10:10:33.934Z,10.73
2023-01-15T10:13:04.402Z,10.70
2023-01-15T10:15:38.299Z,10.07
2023-01-15T10:18:08.122Z,8.77
2023-01-15T10:20:53.088Z,9.67
2023-01-15T10:23:40.280Z,9.90
2023-01-15T10:26:17.958Z,11.10
2023-01-15T10:28:54.546Z,8.57
2023-01-15T10:31:24.623Z,8.67
2023-01-15T10:34:05.091Z,9.43
2023-01-15T10:36:37.370Z,9.60
2023-01-15T10:39:14.890Z,8.53
2023-01-15T10:41:50.733Z,8.20
2023-01-15T10:44:22.190Z,8.27
2023-01-15T10:46:55.384Z,9.00
2023-01-15T10:49:23.819Z,9.40
2023-01-15T10:51:55.357Z,8.80
2023-01-15T10:54:26.059Z,8.87
2023-01-15T10:57:02.011Z,9.10
2023-01-15T10:59:38.237Z,8.60
2023-01-15T11:02:21.335Z,9.37
2023-01-15T11:04:49.154Z,9.37
2023-01-15T11:07:18.569Z,10.13
2023-01-15T11:09:46.639Z,10.13
2023-01-15T11:12:39.080Z,10.23
2023-01-15T11:15:40.712Z,9.23
2023-01-15T11:18:31.104Z,9.33
2023-01-15T11:20:58.855Z,9.57
2023-01-15T11:23:29.912Z,10.17
2023-01-15T11:25:59.212Z,10.33
2023-01-15T11:28:36.302Z,10.40
2023-01-15T11:31:04.424Z,10.00
2023-01-15T11:33:32.994Z,10.00
2023-01-15T11:36:02.214Z,10.30
2023-01-15T11:38:32.388Z,10.50
2023-01-15T11:41:01.564Z,9.70
2023-01-15T11:43:48.181Z,9.77
2023-01-15T11:46:47.264Z,10.07
2023-01-15T11:49:35.398Z,9.40
2023-01-15T11:52:04.086Z,9.90
2023-01-15T11:54:34.132Z,10.40
2023-01-15T11:57:01.848Z,10.17
2023-01-15T11:59:30.137Z,9.60
2023-01-15T12:02:00.294Z,10.20
2023-01-15T12:04:36.102Z,11.20
2023-01-15T12:07:06.331Z,11.07
2023-01-15T12:09:49.838Z,9.93
2023-01-15T12:12:25.124Z,10.33
2023-01-15T12:15:08.253Z,8.90
2023-01-15T12:17:56.607Z,9.67
2023-01-15T12:20:28.050Z,10.13
2023-01-15T12:23:15.555Z,9.87
2023-01-15T12:25:51.153Z,9.60
2023-01-15T12:28:20.769Z,9.70
2023-01-15T12:30:57.944Z,10.23
2023-01-15T12:33:37.107Z,9.53
2023-01-15T12:36:09.380Z,10.50
2023-01-15T12:38:46.477Z,11.10
2023-01-15T12:41:19.932Z,13.07
2023-01-15T12:44:09.078Z,11.87
2023-01-15T12:46:40.415Z,11.77
2023-01-15T12:49:14.934Z,11.27
2023-01-15T12:51:53.527Z,9.87
2023-01-15T12:54:24.820Z,9.83
2023-01-15T12:56:57.036Z,9.50
2023-01-15T12:59:30.182Z,9.37
2023-01-15T13:02:05.133Z,9.37
2023-01-15T13:04:35.963Z,8.87
2023-01-15T13:07:18.143Z,9.37
2023-01-15T13:09:49.301Z,8.60
2023-01-15T13:12:18.426Z,9.07
2023-01-15T13:14:46.872Z,10.33
2023-01-15T13:17:21.271Z,9.67
2023-01-15T13:20:01.223Z,9.70
2023-01-15T13:22:33.695Z,9.00
2023-01-15T13:25:29.608Z,8.73
2023-01-15T13:28:10.275Z,10.00
2023-01-15T13:30:48.367Z,9.43
2023-01-15T13:33:24.764Z,9.87
2023-01-15T13:35:56.041Z,9.33
2023-01-15T13:38:26.597Z,9.07
2023-01-15T13:40:55.887Z,10.23
2023-01-15T13:43:33.866Z,10.63
2023-01-15T13:46:03.582Z,11.10
2023-01-15T13:48:34.331Z,10.90
2023-01-15T13:51:04.577Z,12.13
2023-01-15T13:53:34.120Z,12.00
2023-01-15T13:56:05.910Z,12.67
2023-01-15T13:58:38.033Z,12.70
2023-01-15T14:01:09.231Z,12.73
2023-01-15T14:03:38.497Z,13.87
2023-01-15T14:06:08.276Z,12.83
2023-01-15T14:08:42.908Z,12.03
2023-01-15T14:11:35.981Z,12.33
2023-01-15T14:14:18.381Z,11.40
2023-01-15T14:16:55.078Z,11.83
2023-01-15T14:19:35.560Z,10.97
2023-01-15T14:22:13.117Z,11.30
2023-01-15T14:25:25.463Z,12.10
2023-01-15T14:28:13.437Z,11.40
2023-01-15T14:31:08.215Z,11.10
2023-01-15T14:33:45.636Z,11.87
2023-01-15T14:36:18.415Z,11.47
2023-01-15T14:38:51.077Z,12.97
2023-01-15T14:41:27.595Z,12.00
2023-01-15T14:43:54.560Z,12.13
2023-01-15T14:46:27.866Z,12.63
2023-01-15T14:48:55.638Z,12.90
2023-01-15T14:51:27.173Z,12.53
2023-01-15T14:53:57.479Z,11.90
2023-01-15T14:56:28.183Z,11.33
2023-01-15T14:58:58.482Z,12.53
2023-01-15T15:01:35.870Z,12.33
2023-01-15T15:04:10.018Z,12.53
2023-01-15T15:06:47.444Z,12.73
2023-01-15T15:09:15.749Z,13.53
2023-01-15T15:12:04.958Z,15.77
2023-01-15T15:14:34.309Z,15.60
2023-01-15T15:17:08.588Z,16.63
2023-01-15T15:19:40.370Z,15.03
2023-01-15T15:22:12.668Z,15.20
2023-01-15T15:24:46.998Z,14.53
2023-01-15T15:27:18.144Z,14.87
2023-01-15T15:29:46.132Z,13.90
2023-01-15T15:32:16.870Z,14.40
2023-01-15T15:34:47.058Z,14.70
2023-01-15T15:37:18.396Z,15.60
2023-01-15T15:39:53.720Z,16.43
2023-01-15T15:42:43.656Z,18.10
2023-01-15T15:45:35.676Z,18.70
2023-01-15T15:48:30.950Z,18.33
2023-01-15T15:51:00.190Z,17.23
2023-01-15T15:53:27.915Z,16.97
2023-01-15T15:55:57.316Z,18.27
2023-01-15T15:58:27.645Z,17.30
2023-01-15T16:00:57.311Z,17.70
2023-01-15T16:03:29.096Z,16.77
2023-01-15T16:05:59.453Z,16.63
2023-01-15T16:08:28.993Z,16.57
2023-01-15T16:10:59.001Z,14.70
2023-01-15T16:13:30.932Z,15.20
2023-01-15T16:15:59.531Z,15.97
2023-01-15T16:18:32.104Z,16.70
2023-01-15T16:20:59.951Z,16.70
2023-01-15T16:23:29.228Z,16.93
2023-01-15T16:26:00.355Z,18.50
2023-01-15T16:28:31.177Z,23.37
2023-01-15T16:30:59.743Z,23.60
2023-01-15T16:33:29.130Z,26.40
2023-01-15T16:35:59.157Z,25.03
2023-01-15T16:38:27.406Z,23.37
2023-01-15T16:40:55.148Z,22.60
2023-01-15T16:43:26.045Z,20.23
2023-01-15T16:46:05.287Z,19.27
2023-01-15T16:48:38.008Z,17.20
2023-01-15T16:51:34.965Z,17.60
2023-01-15T16:54:04.400Z,18.03
2023-01-15T16:56:52.212Z,16.13
2023-01-15T16:59:57.008Z,16.10
2023-01-15T17:02:29.776Z,15.90
2023-01-15T17:04:58.947Z,16.10
2023-01-15T17:07:30.738Z,14.77
2023-01-15T17:10:00.408Z,15.87
2023-01-15T17:12:31.064Z,15.33
2023-01-15T17:15:17.757Z,16.17
2023-01-15T17:17:46.919Z,16.30
2023-01-15T17:20:18.056Z,16.07
2023-01-15T17:22:47.143Z,16.23
2023-01-15T17:25:23.782Z,16.13
2023-01-15T17:27:51.719Z,15.73
2023-01-15T17:30:19.782Z,16.73
2023-01-15T17:32:47.993Z,15.97
2023-01-15T17:35:22.738Z,16.00
2023-01-15T17:37:50.534Z,15.67
2023-01-15T17:40:18.864Z,16.60
2023-01-15T17:42:46.573Z,16.17
2023-01-15T17:45:17.014Z,17.30
2023-01-15T17:47:44.693Z,17.17
2023-01-15T17:50:12.826Z,16.30
2023-01-15T17:52:45.327Z,17.43
2023-01-15T17:55:30.879Z,17.53
2023-01-15T17:58:16.279Z,19.40
2023-01-15T18:01:01.767Z,17.10
2023-01-15T18:03:46.996Z,17.50
2023-01-15T18:06:15.773Z,17.67
2023-01-15T18:08:48.174Z,16.50
2023-01-15T18:11:15.874Z,18.87
2023-01-15T18:13:43.571Z,19.00
2023-01-15T18:16:11.489Z,16.03
2023-01-15T18:18:39.749Z,16.57
2023-01-15T18:21:07.665Z,16.77
2023-01-15T18:23:39.356Z,17.77
2023-01-15T18:26:09.312Z,15.13
2023-01-15T18:28:38.623Z,15.63
2023-01-15T18:31:11.454Z,16.00
2023-01-15T18:33:39.202Z,16.40
2023-01-15T18:36:09.039Z,15.27
2023-01-15T18:38:37.395Z,16.43
2023-01-15T18:41:10.951Z,15.30
2023-01-15T18:43:56.199Z,15.47
2023-01-15T18:46:38.020Z,15.90
2023-01-15T18:49:08.709Z,17.27
2023-01-15T18:51:36.674Z,17.80
2023-01-15T18:54:06.196Z,17.23
2023-01-15T18:56:42.876Z,17.50
2023-01-15T18:59:12.243Z,17.60
2023-01-15T19:01:40.931Z,17.53
2023-01-15T19:04:10.976Z,16.73
2023-01-15T19:06:39.621Z,18.03
2023-01-15T19:09:08.297Z,18.10
2023-01-15T19:11:37.408Z,18.90
2023-01-15T19:14:22.903Z,19.83
2023-01-15T19:17:08.318Z,21.37
2023-01-15T19:19:36.339Z,22.73
2023-01-15T19:22:23.018Z,21.97
2023-01-15T19:24:50.743Z,21.10
2023-01-15T19:27:19.891Z,21.30
2023-01-15T19:29:47.590Z,20.40
2023-01-15T19:32:15.386Z,21.23
2023-01-15T19:34:43.091Z,22.03
2023-01-15T19:37:10.761Z,22.80
2023-01-15T19:39:38.503Z,23.47
2023-01-15T19:42:23.720Z,22.50
2023-01-15T19:45:10.188Z,23.97
2023-01-15T19:47:55.917Z,25.87
2023-01-15T19:50:26.781Z,24.50
2023-01-15T19:52:56.140Z,24.13
2023-01-15T19:55:24.931Z,24.47
2023-01-15T19:57:58.065Z,23.87
2023-01-15T20:00:27.733Z,25.53
2023-01-15T20:02:56.396Z,24.93
2023-01-15T20:05:25.592Z,23.77
2023-01-15T20:07:53.366Z,24.63
2023-01-15T20:10:23.248Z,24.67
2023-01-15T20:13:09.020Z,22.87
2023-01-15T20:15:39.419Z,24.63
2023-01-15T20:18:07.425Z,23.13
2023-01-15T20:20:35.720Z,23.93
2023-01-15T20:23:03.429Z,22.80
2023-01-15T20:25:31.481Z,22.60
2023-01-15T20:28:00.296Z,22.77
2023-01-15T20:30:29.369Z,24.23
2023-01-15T20:32:58.942Z,22.10
2023-01-15T20:35:29.236Z,24.37
2023-01-15T20:37:56.976Z,25.13
2023-01-15T20:40:25.513Z,26.03
2023-01-15T20:43:11.040Z,25.10
2023-01-15T20:45:38.952Z,26.00
2023-01-15T20:48:26.149Z,25.73
2023-01-15T20:51:03.123Z,24.07
2023-01-15T20:53:33.349Z,24.03
2023-01-15T20:56:01.319Z,23.40
2023-01-15T20:58:29.064Z,22.33
2023-01-15T21:01:03.125Z,21.87
2023-01-15T21:03:32.269Z,21.60
2023-01-15T21:06:00.315Z,22.33
2023-01-15T21:08:29.484Z,21.17
2023-01-15T21:10:57.251Z,20.30
2023-01-15T21:13:25.037Z,18.63
2023-01-15T21:15:58.811Z,18.73
2023-01-15T21:18:27.350Z,17.90
2023-01-15T21:20:56.629Z,18.40
2023-01-15T21:23:24.753Z,19.17
2023-01-15T21:25:52.438Z,19.10
2023-01-15T21:28:20.122Z,18.60
2023-01-15T21:30:47.808Z,19.10
2023-01-15T21:33:15.670Z,18.27
2023-01-15T21:35:43.331Z,17.67
2023-01-15T21:38:12.372Z,18.93
2023-01-15T21:40:40.558Z,19.30
2023-01-15T21:43:26.641Z,18.73
2023-01-15T21:46:02.518Z,20.17
2023-01-15T21:48:30.391Z,18.87
2023-01-15T21:50:58.119Z,19.13
2023-01-15T21:53:27.134Z,18.13
2023-01-15T21:55:54.806Z,17.93
2023-01-15T21:58:22.488Z,16.80
2023-01-15T22:00:50.327Z,17.83
2023-01-15T22:03:18.177Z,17.47
2023-01-15T22:05:46.119Z,16.73
2023-01-15T22:08:13.848Z,17.10
2023-01-15T22:10:45.265Z,16.53
2023-01-15T22:13:12.912Z,16.60
2023-01-15T22:15:40.861Z,16.40
2023-01-15T22:18:08.563Z,15.93
2023-01-15T22:20:39.022Z,15.57
2023-01-15T22:23:06.735Z,15.60
2023-01-15T22:25:35.280Z,16.60
2023-01-15T22:28:04.513Z,14.93
2023-01-15T22:30:33.837Z,14.67
2023-01-15T22:33:01.522Z,14.67
2023-01-15T22:35:29.258Z,14.47
2023-01-15T22:37:59.266Z,14.00
2023-01-15T22:40:26.944Z,14.03
2023-01-15T22:42:54.728Z,13.20
2023-01-15T22:45:24.895Z,13.43
2023-01-15T22:47:52.583Z,13.00
2023-01-15T22:50:23.064Z,14.00
2023-01-15T22:52:50.736Z,14.60
2023-01-15T22:55:18.584Z,13.43
2023-01-15T22:57:47.720Z,13.53
2023-01-15T23:00:16.350Z,12.60
2023-01-15T23:03:04.931Z,13.30
2023-01-15T23:05:37.000Z,13.20
2023-01-15T23:08:04.723Z,12.33
2023-01-15T23:10:33.531Z,11.83
2023-01-15T23:13:01.228Z,11.53
2023-01-15T23:15:28.961Z,11.53
2023-01-15T23:17:58.028Z,12.00
2023-01-15T23:20:25.747Z,11.50
2023-01-15T23:22:53.416Z,11.80
2023-01-15T23:25:21.185Z,12.53
2023-01-15T23:27:48.895Z,12.17
2023-01-15T23:30:16.976Z,11.87
2023-01-15T23:32:44.622Z,11.53
2023-01-15T23:35:13.621Z,11.73
2023-01-15T23:37:41.306Z,11.37
2023-01-15T23:40:11.008Z,12.50
2023-01-15T23:42:56.372Z,12.20
2023-01-15T23:45:41.726Z,12.50
2023-01-15T23:48:09.422Z,11.97
2023-01-15T23:50:39.693Z,12.17
2023-01-15T23:53:07.351Z,12.00
2023-01-15T23:55:35.431Z,12.20
2023-01-15T23:58:03.354Z,12.73
